createdAt,value
2023-02-08T00:02:14.172Z,100.00
2023-02-08T00:04:43.280Z,100.00
2023-02-08T00:07:12.057Z,100.00
2023-02-08T00:09:41.100Z,100.00
2023-02-08T00:12:11.576Z,100.00
2023-02-08T00:14:41.701Z,100.00
2023-02-08T00:17:10.488Z,100.00
2023-02-08T00:19:39.475Z,100.00
2023-02-08T00:22:08.574Z,100.00
2023-02-08T00:24:37.464Z,100.00
2023-02-08T00:27:06.396Z,100.00
2023-02-08T00:29:35.448Z,100.00
2023-02-08T00:32:05.038Z,100.00
2023-02-08T00:34:35.477Z,100.00
2023-02-08T00:37:05.550Z,100.00
2023-02-08T00:39:35.000Z,100.00
2023-02-08T00:42:04.402Z,100.00
2023-02-08T00:44:34.645Z,100.00
2023-02-08T00:47:03.528Z,100.00
2023-02-08T00:49:32.959Z,100.00
2023-02-08T00:52:02.138Z,100.00
2023-02-08T00:54:31.208Z,100.00
2023-02-08T00:57:00.201Z,100.00
2023-02-08T00:59:29.296Z,100.00
2023-02-08T01:01:58.391Z,100.00
2023-02-08T01:04:27.378Z,100.00
2023-02-08T01:07:05.088Z,100.00
2023-02-08T01:09:34.272Z,100.00
2023-02-08T01:12:03.580Z,100.00
2023-02-08T01:14:32.800Z,100.00
2023-02-08T01:17:01.968Z,100.00
2023-02-08T01:19:31.066Z,100.00
2023-02-08T01:21:59.853Z,100.00
2023-02-08T01:24:29.154Z,100.00
2023-02-08T01:26:59.064Z,100.00
2023-02-08T01:29:28.224Z,100.00
2023-02-08T01:31:57.050Z,100.00
2023-02-08T01:34:26.041Z,100.00
2023-02-08T01:36:55.032Z,100.00
2023-02-08T01:39:24.339Z,100.00
2023-02-08T01:41:53.747Z,100.00
2023-02-08T01:45:00.412Z,100.00
2023-02-08T01:47:29.315Z,100.00
2023-02-08T01:49:58.294Z,100.00
2023-02-08T01:52:29.231Z,100.00
2023-02-08T01:55:21.315Z,100.00
2023-02-08T01:57:53.029Z,100.00
2023-02-08T02:00:22.678Z,100.00
2023-02-08T02:02:54.219Z,100.00
2023-02-08T02:05:23.890Z,100.00
2023-02-08T02:07:53.323Z,100.00
2023-02-08T02:10:26.081Z,100.00
2023-02-08T02:12:55.776Z,100.00
2023-02-08T02:15:24.878Z,100.00
2023-02-08T02:17:53.873Z,100.00
2023-02-08T02:20:47.548Z,100.00
2023-02-08T02:23:25.105Z,100.00
2023-02-08T02:26:20.241Z,100.00
2023-02-08T02:29:07.983Z,100.00
2023-02-08T02:31:43.760Z,100.00
2023-02-08T02:34:26.483Z,100.00
2023-02-08T02:37:20.023Z,100.00
2023-02-08T02:40:08.153Z,100.00
2023-02-08T02:43:04.894Z,100.00
2023-02-08T02:45:35.857Z,100.00
2023-02-08T02:48:18.036Z,100.00
2023-02-08T02:50:49.315Z,100.00
2023-02-08T02:53:59.959Z,100.00
2023-02-08T02:56:33.053Z,100.00
2023-02-08T02:59:04.687Z,100.00
2023-02-08T03:01:34.042Z,100.00
2023-02-08T03:04:32.519Z,100.00
2023-02-08T03:07:20.041Z,100.00
2023-02-08T03:10:07.103Z,100.00
2023-02-08T03:13:05.324Z,100.00
2023-02-08T03:16:06.477Z,100.00
2023-02-08T03:18:54.184Z,100.00
2023-02-08T03:21:25.943Z,100.00
2023-02-08T03:24:26.477Z,100.00
2023-02-08T03:27:18.936Z,100.00
2023-02-08T03:30:01.733Z,100.00
2023-02-08T03:32:41.109Z,100.00
2023-02-08T03:35:24.515Z,100.00
2023-02-08T03:38:03.945Z,100.00
2023-02-08T03:40:38.288Z,100.00
2023-02-08T03:43:28.647Z,100.00
2023-02-08T03:46:05.823Z,100.00
2023-02-08T03:48:35.409Z,100.00
2023-02-08T03:51:04.762Z,100.00
2023-02-08T03:53:38.557Z,100.00
2023-02-08T03:56:11.487Z,100.00
2023-02-08T03:59:02.030Z,100.00
2023-02-08T04:01:33.845Z,100.00
2023-02-08T04:04:02.948Z,100.00
2023-02-08T04:06:32.813Z,100.00
2023-02-08T04:09:01.898Z,100.00
2023-02-08T04:11:30.998Z,100.00
2023-02-08T04:14:00.591Z,100.00
2023-02-08T04:16:29.370Z,100.00
2023-02-08T04:18:58.173Z,100.00
2023-02-08T04:21:27.654Z,100.00
2023-02-08T04:23:56.355Z,100.00
2023-02-08T04:26:25.241Z,100.00
2023-02-08T04:28:54.231Z,100.00
2023-02-08T04:31:23.024Z,100.00
2023-02-08T04:33:52.149Z,100.00
2023-02-08T04:36:21.018Z,100.00
2023-02-08T04:38:50.615Z,100.00
2023-02-08T04:41:19.404Z,100.00
2023-02-08T04:43:48.399Z,100.00
2023-02-08T04:46:17.288Z,100.00
2023-02-08T04:48:46.282Z,100.00
2023-02-08T04:51:15.018Z,100.00
2023-02-08T04:53:43.801Z,100.00
2023-02-08T04:56:12.532Z,100.00
2023-02-08T04:58:42.970Z,100.00
2023-02-08T05:01:12.076Z,100.00
2023-02-08T05:03:41.156Z,100.00
2023-02-08T05:06:09.944Z,100.00
2023-02-08T05:08:39.250Z,100.00
2023-02-08T05:11:08.444Z,100.00
2023-02-08T05:13:37.565Z,100.00
2023-02-08T05:16:07.344Z,100.00
2023-02-08T05:18:38.391Z,100.00
2023-02-08T05:21:07.482Z,100.00
2023-02-08T05:23:36.886Z,100.00
2023-02-08T05:26:07.322Z,100.00
2023-02-08T05:28:36.331Z,100.00
2023-02-08T05:31:11.445Z,100.00
2023-02-08T05:33:40.233Z,100.00
2023-02-08T05:36:09.421Z,100.00
2023-02-08T05:38:38.621Z,100.00
2023-02-08T05:41:07.632Z,100.00
2023-02-08T05:43:36.584Z,100.00
2023-02-08T05:46:05.613Z,100.00
2023-02-08T05:48:34.416Z,100.00
2023-02-08T05:51:03.406Z,100.00
2023-02-08T05:53:32.475Z,100.00
2023-02-08T05:56:01.598Z,100.00
2023-02-08T05:58:30.764Z,100.00
2023-02-08T06:00:59.682Z,100.00
2023-02-08T06:03:28.771Z,100.00
2023-02-08T06:06:01.134Z,100.00
2023-02-08T06:08:30.019Z,100.00
2023-02-08T06:10:59.103Z,100.00
2023-02-08T06:13:29.507Z,100.00
2023-02-08T06:15:58.664Z,100.00
2023-02-08T06:18:27.616Z,100.00
2023-02-08T06:20:56.811Z,100.00
2023-02-08T06:23:25.807Z,100.00
2023-02-08T06:25:54.821Z,100.00
2023-02-08T06:28:24.144Z,100.00
2023-02-08T06:30:54.421Z,100.00
2023-02-08T06:33:23.639Z,100.00
2023-02-08T06:35:53.549Z,100.00
2023-02-08T06:38:23.494Z,100.00
2023-02-08T06:40:53.298Z,100.00
2023-02-08T06:43:22.363Z,100.00
2023-02-08T06:45:51.072Z,100.00
2023-02-08T06:48:20.855Z,100.00
2023-02-08T06:50:52.408Z,100.00
2023-02-08T06:53:22.010Z,100.00
2023-02-08T06:55:51.003Z,100.00
2023-02-08T06:58:20.656Z,100.00
2023-02-08T07:00:51.331Z,100.00
2023-02-08T07:03:20.645Z,100.00
2023-02-08T07:06:03.824Z,100.00
2023-02-08T07:08:34.216Z,100.00
2023-02-08T07:11:12.924Z,100.00
2023-02-08T07:13:42.131Z,100.00
2023-02-08T07:16:10.673Z,100.00
2023-02-08T07:18:40.208Z,100.00
2023-02-08T07:21:08.887Z,100.00
2023-02-08T07:23:39.046Z,100.00
2023-02-08T07:26:10.090Z,100.00
2023-02-08T07:28:39.247Z,100.00
2023-02-08T07:31:13.070Z,100.00
2023-02-08T07:33:41.843Z,100.00
2023-02-08T07:36:11.067Z,100.00
2023-02-08T07:38:39.659Z,100.00
2023-02-08T07:41:10.259Z,100.00
2023-02-08T07:43:39.566Z,100.00
2023-02-08T07:46:09.178Z,100.00
2023-02-08T07:48:40.165Z,100.00
2023-02-08T07:51:10.246Z,100.00
2023-02-08T07:53:39.461Z,100.00
2023-02-08T07:56:08.208Z,100.00
2023-02-08T07:58:38.082Z,100.00
2023-02-08T08:01:20.989Z,100.00
2023-02-08T08:03:51.340Z,100.00
2023-02-08T08:06:20.875Z,100.00
2023-02-08T08:08:51.004Z,100.00
2023-02-08T08:11:20.407Z,100.00
2023-02-08T08:13:50.645Z,100.00
2023-02-08T08:16:19.418Z,100.00
2023-02-08T08:18:49.634Z,100.00
2023-02-08T08:21:18.712Z,100.00
2023-02-08T08:23:47.499Z,100.00
2023-02-08T08:26:18.542Z,100.00
2023-02-08T08:28:47.306Z,100.00
2023-02-08T08:31:18.889Z,100.00
2023-02-08T08:33:47.777Z,100.00
2023-02-08T08:36:17.141Z,100.00
2023-02-08T08:38:46.287Z,100.00
2023-02-08T08:41:17.434Z,100.00
2023-02-08T08:43:46.429Z,100.00
2023-02-08T08:46:16.932Z,100.00
2023-02-08T08:48:46.334Z,100.00
2023-02-08T08:51:15.239Z,100.00
2023-02-08T08:53:43.608Z,100.00
2023-02-08T08:56:12.404Z,100.00
2023-02-08T08:58:41.178Z,100.00
2023-02-08T09:01:09.771Z,100.00
2023-02-08T09:03:38.843Z,100.00
2023-02-08T09:06:07.991Z,100.00
2023-02-08T09:08:37.146Z,100.00
2023-02-08T09:11:15.973Z,100.00
2023-02-08T09:13:44.456Z,100.00
2023-02-08T09:16:14.889Z,100.00
2023-02-08T09:18:44.276Z,100.00
2023-02-08T09:22:19.094Z,100.00
2023-02-08T09:24:49.128Z,100.00
2023-02-08T09:27:19.326Z,100.00
2023-02-08T09:29:48.846Z,100.00
2023-02-08T09:32:18.093Z,100.00
2023-02-08T09:34:47.259Z,100.00
2023-02-08T09:37:18.500Z,100.00
2023-02-08T09:39:47.783Z,100.00
2023-02-08T09:42:40.643Z,100.00
2023-02-08T09:45:24.492Z,100.00
2023-02-08T09:48:14.671Z,100.00
2023-02-08T09:50:47.233Z,100.00
2023-02-08T09:53:26.113Z,100.00
2023-02-08T09:56:05.696Z,100.00
2023-02-08T09:58:34.537Z,100.00
2023-02-08T10:01:07.699Z,100.00
2023-02-08T10:03:38.712Z,100.00
2023-02-08T10:06:09.765Z,100.00
2023-02-08T10:08:38.657Z,100.00
2023-02-08T10:11:40.106Z,100.00
2023-02-08T10:14:21.829Z,98.88
2023-02-08T10:17:21.318Z,94.26
2023-02-08T10:19:52.961Z,90.57
2023-02-08T10:22:25.031Z,85.59
2023-02-08T10:24:56.583Z,80.02
2023-02-08T10:27:37.985Z,78.09
2023-02-08T10:30:28.532Z,76.52
2023-02-08T10:33:02.483Z,73.02
2023-02-08T10:35:50.770Z,71.59
2023-02-08T10:38:19.610Z,70.93
2023-02-08T10:40:52.501Z,68.85
2023-02-08T10:43:37.355Z,66.90
2023-02-08T10:46:08.832Z,64.24
2023-02-08T10:49:09.953Z,63.26
2023-02-08T10:51:39.565Z,62.50
2023-02-08T10:54:14.955Z,62.51
2023-02-08T10:56:46.908Z,62.44
2023-02-08T10:59:22.476Z,61.73
2023-02-08T11:01:51.730Z,61.55
2023-02-08T11:04:20.710Z,60.47
2023-02-08T11:06:50.637Z,59.23
2023-02-08T11:09:31.019Z,57.93
2023-02-08T11:12:03.644Z,57.33
2023-02-08T11:14:46.904Z,57.70
2023-02-08T11:17:30.488Z,57.68
2023-02-08T11:19:59.743Z,56.74
2023-02-08T11:22:31.545Z,55.44
2023-02-08T11:25:02.440Z,54.87
2023-02-08T11:27:33.143Z,54.50
2023-02-08T11:30:15.037Z,53.48
2023-02-08T11:32:44.335Z,52.56
2023-02-08T11:35:26.549Z,52.08
2023-02-08T11:37:57.082Z,51.77
2023-02-08T11:40:38.360Z,50.98
2023-02-08T11:43:08.257Z,50.09
2023-02-08T11:45:37.467Z,50.36
2023-02-08T11:48:06.560Z,50.80
2023-02-08T11:50:37.208Z,49.81
2023-02-08T11:53:21.598Z,49.37
2023-02-08T11:56:19.914Z,48.94
2023-02-08T11:59:16.455Z,48.83
2023-02-08T12:01:45.447Z,48.61
2023-02-08T12:04:15.483Z,48.41
2023-02-08T12:06:56.561Z,48.39
2023-02-08T12:09:28.081Z,47.89
2023-02-08T12:12:17.985Z,47.18
2023-02-08T12:14:55.694Z,47.53
2023-02-08T12:17:40.438Z,47.53
2023-02-08T12:20:19.145Z,47.23
2023-02-08T12:22:57.876Z,47.32
2023-02-08T12:25:33.165Z,47.12
2023-02-08T12:28:48.103Z,47.01
2023-02-08T12:35:50.948Z,45.64
2023-02-08T12:39:19.408Z,45.45
2023-02-08T12:42:13.663Z,45.46
2023-02-08T12:45:02.058Z,45.71
2023-02-08T12:47:49.263Z,45.94
2023-02-08T12:51:04.846Z,45.87
2023-02-08T12:53:38.209Z,45.65
2023-02-08T12:56:11.744Z,45.72
2023-02-08T12:58:46.456Z,45.74
2023-02-08T13:01:23.350Z,46.44
2023-02-08T13:04:26.711Z,46.47
2023-02-08T13:06:59.973Z,47.35
2023-02-08T13:09:35.868Z,47.91
2023-02-08T13:12:09.213Z,48.60
2023-02-08T13:14:50.331Z,48.26
2023-02-08T13:17:30.921Z,48.09
2023-02-08T13:20:05.716Z,48.87
2023-02-08T13:22:39.764Z,48.81
2023-02-08T13:25:15.640Z,49.32
2023-02-08T13:27:44.578Z,49.73
2023-02-08T13:30:21.054Z,50.30
2023-02-08T13:32:51.176Z,50.08
2023-02-08T13:35:28.576Z,51.16
2023-02-08T13:38:08.302Z,52.17
2023-02-08T13:40:37.503Z,53.33
2023-02-08T13:43:34.307Z,54.30
2023-02-08T13:46:04.502Z,55.07
2023-02-08T13:48:43.609Z,55.18
2023-02-08T13:51:31.443Z,55.35
2023-02-08T13:54:01.594Z,56.39
2023-02-08T13:56:50.825Z,58.16
2023-02-08T13:59:34.290Z,61.16
2023-02-08T14:02:12.174Z,65.75
2023-02-08T14:04:42.742Z,70.41
2023-02-08T14:07:12.095Z,74.57
2023-02-08T14:09:54.798Z,78.87
2023-02-08T14:12:43.863Z,83.81
2023-02-08T14:15:17.569Z,88.21
2023-02-08T14:17:51.473Z,92.46
2023-02-08T14:20:21.902Z,96.24
2023-02-08T14:22:52.664Z,99.04
2023-02-08T14:25:30.244Z,100.00
2023-02-08T14:28:00.651Z,100.00
2023-02-08T14:30:31.986Z,100.00
2023-02-08T14:33:05.390Z,100.00
2023-02-08T14:35:40.526Z,100.00
2023-02-08T14:38:24.472Z,100.00
2023-02-08T14:40:55.111Z,100.00
2023-02-08T14:43:40.949Z,100.00
2023-02-08T14:46:38.116Z,100.00
2023-02-08T14:49:17.386Z,100.00
2023-02-08T14:51:50.699Z,100.00
2023-02-08T14:54:57.987Z,100.00
2023-02-08T14:57:37.500Z,100.00
2023-02-08T15:00:08.858Z,100.00
2023-02-08T15:02:37.595Z,100.00
2023-02-08T15:05:46.875Z,100.00
2023-02-08T15:08:20.711Z,100.00
2023-02-08T15:10:49.381Z,100.00
2023-02-08T15:13:33.423Z,100.00
2023-02-08T15:17:18.014Z,100.00
2023-02-08T15:19:47.069Z,100.00
2023-02-08T15:22:37.372Z,100.00
2023-02-08T15:25:29.000Z,100.00
2023-02-08T15:28:00.286Z,100.00
2023-02-08T15:30:38.056Z,100.00
2023-02-08T15:33:14.902Z,100.00
2023-02-08T15:35:44.202Z,100.00
2023-02-08T15:38:19.720Z,100.00
2023-02-08T15:41:06.952Z,100.00
2023-02-08T15:43:37.042Z,100.00
2023-02-08T15:46:16.599Z,100.00
2023-02-08T15:48:46.333Z,100.00
2023-02-08T15:51:16.545Z,100.00
2023-02-08T15:53:46.577Z,100.00
2023-02-08T15:56:24.049Z,100.00
2023-02-08T15:59:03.509Z,100.00
2023-02-08T16:01:34.241Z,100.00
2023-02-08T16:04:06.224Z,100.00
2023-02-08T16:06:39.766Z,100.00
2023-02-08T16:09:15.835Z,100.00
2023-02-08T16:11:49.330Z,100.00
2023-02-08T16:14:24.206Z,100.00
2023-02-08T16:16:57.655Z,100.00
2023-02-08T16:19:32.811Z,100.00
2023-02-08T16:22:35.799Z,100.00
2023-02-08T16:25:45.469Z,100.00
2023-02-08T16:28:32.485Z,100.00
2023-02-08T16:31:03.307Z,100.00
2023-02-08T16:33:33.250Z,100.00
2023-02-08T16:36:02.365Z,100.00
2023-02-08T16:38:34.134Z,100.00
2023-02-08T16:41:12.659Z,100.00
2023-02-08T16:43:44.221Z,100.00
2023-02-08T16:46:18.240Z,100.00
2023-02-08T16:48:51.860Z,100.00
2023-02-08T16:51:27.552Z,100.00
2023-02-08T16:54:07.891Z,100.00
2023-02-08T16:56:37.683Z,100.00
2023-02-08T16:59:06.158Z,100.00
2023-02-08T17:02:19.089Z,100.00
2023-02-08T17:04:51.700Z,100.00
2023-02-08T17:07:20.692Z,100.00
2023-02-08T17:09:50.677Z,100.00
2023-02-08T17:12:22.724Z,100.00
2023-02-08T17:14:52.668Z,100.00
2023-02-08T17:17:22.182Z,100.00
2023-02-08T17:19:52.189Z,100.00
2023-02-08T17:22:21.371Z,100.00
2023-02-08T17:28:41.018Z,100.00
2023-02-08T17:31:12.127Z,100.00
2023-02-08T17:33:41.719Z,100.00
2023-02-08T17:36:11.632Z,100.00
2023-02-08T17:39:02.025Z,100.00
2023-02-08T17:41:40.442Z,100.00
2023-02-08T17:44:11.331Z,100.00
2023-02-08T17:46:40.374Z,100.00
2023-02-08T17:49:09.769Z,100.00
2023-02-08T17:51:38.051Z,100.00
2023-02-08T17:54:07.052Z,100.00
2023-02-08T17:56:36.750Z,100.00
2023-02-08T17:59:06.366Z,100.00
2023-02-08T18:01:36.086Z,100.00
2023-02-08T18:04:04.959Z,100.00
2023-02-08T18:06:34.866Z,100.00
2023-02-08T18:09:03.763Z,100.00
2023-02-08T18:11:33.984Z,100.00
2023-02-08T18:14:03.194Z,100.00
2023-02-08T18:16:36.378Z,100.00
2023-02-08T18:19:05.883Z,100.00
2023-02-08T18:21:35.160Z,100.00
2023-02-08T18:24:06.370Z,100.00
2023-02-08T18:26:36.981Z,100.00
2023-02-08T18:29:06.277Z,100.00
2023-02-08T18:31:35.841Z,100.00
2023-02-08T18:34:05.253Z,100.00
2023-02-08T18:36:34.549Z,100.00
2023-02-08T18:39:03.753Z,100.00
2023-02-08T18:41:32.843Z,100.00
2023-02-08T18:44:03.481Z,100.00
2023-02-08T18:46:32.480Z,100.00
2023-02-08T18:49:01.251Z,100.00
2023-02-08T18:51:32.196Z,100.00
2023-02-08T18:54:01.520Z,100.00
2023-02-08T18:56:32.793Z,100.00
2023-02-08T18:59:01.834Z,100.00
2023-02-08T19:01:31.182Z,100.00
2023-02-08T19:04:00.757Z,100.00
2023-02-08T19:06:31.932Z,100.00
2023-02-08T19:09:03.010Z,100.00
2023-02-08T19:11:37.376Z,100.00
2023-02-08T19:14:09.280Z,100.00
2023-02-08T19:16:38.740Z,100.00
2023-02-08T19:19:08.041Z,100.00
2023-02-08T19:21:38.547Z,100.00
2023-02-08T19:24:07.871Z,100.00
2023-02-08T19:26:40.158Z,100.00
2023-02-08T19:29:11.656Z,100.00
2023-02-08T19:31:41.013Z,100.00
2023-02-08T19:34:11.189Z,100.00
2023-02-08T19:36:46.746Z,100.00
2023-02-08T19:39:17.196Z,100.00
2023-02-08T19:41:46.878Z,100.00
2023-02-08T19:44:18.301Z,100.00
2023-02-08T19:46:48.533Z,100.00
2023-02-08T19:49:17.759Z,100.00
2023-02-08T19:51:46.850Z,100.00
2023-02-08T19:54:18.808Z,100.00
2023-02-08T19:56:47.581Z,100.00
2023-02-08T19:59:18.897Z,100.00
2023-02-08T20:01:48.342Z,100.00
2023-02-08T20:04:18.041Z,100.00
2023-02-08T20:06:47.266Z,100.00
2023-02-08T20:09:17.259Z,100.00
2023-02-08T20:12:01.462Z,100.00
2023-02-08T20:14:33.288Z,100.00
2023-02-08T20:17:02.802Z,100.00
2023-02-08T20:19:31.970Z,100.00
2023-02-08T20:22:01.163Z,100.00
2023-02-08T20:24:30.678Z,100.00
2023-02-08T20:27:00.274Z,100.00
2023-02-08T20:29:29.671Z,100.00
2023-02-08T20:32:09.526Z,100.00
2023-02-08T20:34:40.958Z,100.00
2023-02-08T20:37:20.938Z,100.00
2023-02-08T20:39:50.220Z,100.00
2023-02-08T20:42:19.414Z,100.00
2023-02-08T20:44:48.719Z,100.00
2023-02-08T20:47:22.523Z,100.00
2023-02-08T20:49:51.827Z,100.00
2023-02-08T20:52:21.127Z,100.00
2023-02-08T20:54:50.833Z,100.00
2023-02-08T20:57:20.026Z,100.00
2023-02-08T20:59:50.826Z,100.00
2023-02-08T21:02:23.785Z,100.00
2023-02-08T21:04:52.657Z,100.00
2023-02-08T21:07:21.537Z,100.00
2023-02-08T21:09:50.345Z,100.00
2023-02-08T21:12:19.421Z,100.00
2023-02-08T21:14:49.016Z,100.00
2023-02-08T21:17:19.148Z,100.00
2023-02-08T21:19:48.027Z,100.00
2023-02-08T21:22:17.721Z,100.00
2023-02-08T21:24:46.733Z,100.00
2023-02-08T21:27:16.072Z,100.00
2023-02-08T21:29:45.535Z,100.00
2023-02-08T21:32:14.140Z,100.00
2023-02-08T21:34:43.308Z,100.00
2023-02-08T21:37:12.201Z,100.00
2023-02-08T21:39:41.407Z,100.00
2023-02-08T21:42:10.350Z,100.00
2023-02-08T21:44:39.994Z,100.00
2023-02-08T21:47:09.192Z,100.00
2023-02-08T21:49:56.616Z,100.00
2023-02-08T21:52:44.251Z,100.00
2023-02-08T21:55:13.242Z,100.00
2023-02-08T21:57:43.536Z,100.00
2023-02-08T22:00:13.302Z,100.00
2023-02-08T22:02:42.402Z,100.00
2023-02-08T22:05:11.844Z,100.00
2023-02-08T22:07:49.076Z,100.00
2023-02-08T22:10:19.922Z,100.00
2023-02-08T22:12:49.353Z,100.00
2023-02-08T22:15:19.513Z,100.00
2023-02-08T22:17:48.538Z,100.00
2023-02-08T22:20:18.932Z,100.00
2023-02-08T22:22:47.925Z,100.00
2023-02-08T22:25:17.020Z,100.00
2023-02-08T22:27:46.528Z,100.00
2023-02-08T22:30:16.665Z,100.00
2023-02-08T22:32:46.970Z,100.00
2023-02-08T22:35:16.850Z,100.00
2023-02-08T22:37:45.711Z,100.00
2023-02-08T22:40:14.784Z,100.00
2023-02-08T22:42:44.176Z,100.00
2023-02-08T22:45:13.485Z,100.00
2023-02-08T22:47:42.781Z,100.00
2023-02-08T22:50:12.585Z,100.00
2023-02-08T22:52:41.708Z,100.00
2023-02-08T22:55:10.679Z,100.00
2023-02-08T22:57:39.496Z,100.00
2023-02-08T23:00:09.274Z,100.00
2023-02-08T23:02:38.778Z,100.00
2023-02-08T23:05:08.288Z,100.00
2023-02-08T23:07:38.144Z,100.00
2023-02-08T23:10:10.360Z,100.00
2023-02-08T23:12:40.210Z,100.00
2023-02-08T23:15:10.862Z,100.00
2023-02-08T23:17:40.107Z,100.00
2023-02-08T23:20:09.656Z,100.00
2023-02-08T23:22:40.342Z,100.00
2023-02-08T23:25:09.036Z,100.00
2023-02-08T23:27:37.830Z,100.00
2023-02-08T23:30:09.501Z,100.00
2023-02-08T23:32:38.791Z,100.00
2023-02-08T23:35:08.995Z,100.00
2023-02-08T23:37:38.083Z,100.00
2023-02-08T23:40:07.381Z,100.00
2023-02-08T23:42:36.489Z,100.00
2023-02-08T23:45:05.509Z,100.00
2023-02-08T23:47:34.889Z,100.00
2023-02-08T23:50:03.559Z,100.00
2023-02-08T23:52:33.815Z,100.00
2023-02-08T23:55:02.368Z,100.00
2023-02-08T23:57:35.061Z,100.00
